EET,Max TemperatureF,Mean TemperatureF,Min TemperatureF,Max Dew PointF,MeanDew PointF,Min DewpointF,Max Humidity, Mean Humidity, Min Humidity, Max Sea Level PressureIn, Mean Sea Level PressureIn, Min Sea Level PressureIn, Max VisibilityMiles, Mean VisibilityMiles, Min VisibilityMiles, Max Wind SpeedMPH, Mean Wind SpeedMPH, Max Gust SpeedMPH,PrecipitationIn, CloudCover, Events, WindDirDegrees
2012-10-1,93,82,71,66,47,39,73,32,15,30.06,30.02,29.98,,,,16,8,25,0.00,,,327
2012-10-2,86,74,62,63,57,48,68,53,40,30.06,30.00,29.95,6,6,6,10,2,,0.00,1,,208
2012-10-3,89,78,68,61,56,48,73,46,25,29.95,29.90,29.83,6,6,6,14,5,25,0.00,2,,262
2012-10-4,86,78,69,61,56,48,65,48,27,29.92,29.90,29.86,6,6,6,14,7,,0.00,3,,318
2012-10-5,86,75,64,57,52,45,73,45,23,30.04,29.97,29.92,6,6,6,12,4,,0.00,2,,339
2012-10-6,86,76,66,54,51,48,60,42,27,30.09,30.05,30.01,6,6,6,14,8,25,0.00,1,,333
2012-10-7,84,74,64,57,48,39,60,41,20,30.04,29.96,29.89,,,,12,5,,0.00,,,203
2012-10-8,87,76,66,61,53,43,68,46,21,29.89,29.82,29.77,6,6,6,9,4,,0.00,4,,157
2012-10-9,77,72,68,57,54,48,64,52,43,29.89,29.86,29.83,6,6,6,9,4,,0.00,4,,63
2012-10-10,75,70,64,63,57,54,88,67,47,29.89,29.81,29.80,6,6,2,8,1,,0.00,6,Rain-Thunderstorm,96
2012-10-11,78,70,62,61,58,55,88,67,44,29.95,29.85,29.80,6,6,6,10,2,,0.00,4,,189
2012-10-12,78,70,62,64,62,59,88,72,57,30.01,29.98,29.95,6,6,6,10,4,,0.00,4,,162
2012-10-13,82,73,64,64,60,54,88,66,39,29.98,29.95,29.92,6,6,6,14,3,,0.00,3,,187
2012-10-14,82,73,64,68,62,57,88,70,42,29.95,29.91,29.86,6,6,4,12,4,,0.00,4,Rain-Thunderstorm,168
2012-10-15,80,71,62,68,63,59,100,76,51,30.04,29.96,29.92,6,6,6,10,2,,0.00,4,,185
2012-10-16,84,75,66,70,66,63,94,75,48,30.09,30.04,30.01,6,6,5,10,3,,0.00,2,,200
2012-10-17,86,77,68,66,63,59,88,65,45,30.09,30.07,30.04,6,6,6,9,3,,0.00,3,Thunderstorm,191
2012-10-18,84,74,64,64,57,52,83,54,33,30.12,30.09,30.06,6,6,6,14,4,,0.00,1,,335
2012-10-19,80,74,68,59,53,45,68,49,28,30.15,30.09,30.06,6,6,6,20,13,31,0.00,1,,333
2012-10-20,80,72,62,52,48,43,68,42,26,30.06,30.04,30.01,,,,13,8,21,0.00,,,346
2012-10-21,75,68,60,52,48,43,68,50,33,30.04,30.00,29.98,6,6,6,17,6,32,0.00,4,,351
2012-10-22,68,65,62,57,55,48,82,71,52,29.98,29.98,29.95,6,6,6,15,8,,0.00,5,Rain,323
2012-10-23,68,65,62,57,56,54,82,75,68,29.98,29.97,29.95,6,6,5,14,10,,0.00,5,Rain,331
2012-10-24,69,66,62,57,55,54,77,71,60,29.98,29.96,29.95,6,6,6,16,9,,0.00,5,Rain,322
2012-10-25,73,65,57,54,51,50,77,61,44,29.98,29.92,29.86,6,6,6,12,7,,0.00,1,,332
2012-10-26,75,64,53,57,53,48,88,66,44,29.89,29.86,29.83,6,6,6,10,3,,0.00,1,,308
2012-10-27,77,66,55,64,57,52,88,68,47,29.86,29.80,29.74,6,6,6,14,6,,0.00,4,,148
2012-10-28,78,74,71,66,63,61,78,66,57,29.80,29.77,29.74,6,6,6,25,13,39,0.00,5,,144
2012-10-29,75,68,60,66,61,52,94,77,64,29.74,29.70,29.65,6,6,2,18,7,37,0.00,4,Rain-Thunderstorm,133
2012-10-30,73,65,57,50,44,39,72,48,31,29.92,29.82,29.74,6,6,6,77,7,28,0.00,1,,298
2012-10-31,75,63,51,54,44,36,77,50,25,29.95,29.92,29.89,6,6,6,7,4,,0.00,5,,307